Mc Alisterville, Pennsylvania
Current Conditions -  °F | °C
As of 9:53 AM on Monday 24 Nov 2014 (Local Time) from KSEG Reporting Station
Clear Clear  
Wind Chill: 65°   Ceiling: Unl
Heat Index: 65°   Visibility: 10mi
Dew Point: 56°   Wind: 16mph
Humidity: 73%   Direction: 190°S
Pressure: 29.59"   Gusts: 25mph
Location:  40.6534°N, 77.2807°W
Report Text: KSEG 241453Z AUTO 19014G22KT 170V230 10SM CLR 18/13 A2959 RMK AO2 SLP017 T01830133 51003
Loading
Personal Weather Stations






























Interactive Weather Map New forecast layout! Learn more

10-Day Weather Forecast

Advertisements
Track Severe Weather on mobile